createdAt,value
2018-06-01T00:00:06.348Z,73.20
2018-06-01T00:01:06.450Z,72.90
2018-06-01T00:02:08.218Z,73.70
2018-06-01T00:03:05.920Z,73.70
2018-06-01T00:04:06.018Z,73.50
2018-06-01T00:05:10.750Z,74.40
2018-06-01T00:06:06.289Z,74.40
2018-06-01T00:07:08.579Z,74.10
2018-06-01T00:08:06.561Z,74.10
2018-06-01T00:09:06.283Z,73.90
2018-06-01T00:10:11.233Z,73.80
2018-06-01T00:11:05.808Z,73.80
2018-06-01T00:12:08.428Z,73.80
2018-06-01T00:13:11.180Z,73.90
2018-06-01T00:14:08.295Z,73.70
2018-06-01T00:15:08.440Z,73.60
2018-06-01T00:16:11.146Z,74.20
2018-06-01T00:17:13.350Z,74.30
2018-06-01T00:18:10.917Z,74.30
2018-06-01T00:19:11.395Z,74.60
2018-06-01T00:20:08.435Z,74.50
2018-06-01T00:21:05.917Z,74.50
2018-06-01T00:22:06.076Z,74.40
2018-06-01T00:23:08.337Z,75.00
2018-06-01T00:24:10.949Z,75.00
2018-06-01T00:25:06.911Z,75.30
2018-06-01T00:26:06.249Z,74.90
2018-06-01T00:27:05.995Z,75.10
2018-06-01T00:28:06.129Z,75.40
2018-06-01T00:29:08.478Z,75.10
2018-06-01T00:30:06.348Z,75.10
2018-06-01T00:31:06.175Z,75.00
2018-06-01T00:32:05.862Z,75.30
2018-06-01T00:33:05.623Z,75.00
2018-06-01T00:34:10.680Z,75.30
2018-06-01T00:35:06.208Z,75.50
2018-06-01T00:36:06.651Z,75.70
2018-06-01T00:37:06.293Z,75.60
2018-06-01T00:38:16.167Z,75.00
2018-06-01T00:39:05.801Z,75.00
2018-06-01T00:40:10.700Z,74.90
2018-06-01T00:41:06.299Z,74.90
2018-06-01T00:42:05.991Z,75.00
2018-06-01T00:43:06.119Z,75.20
2018-06-01T00:44:06.430Z,75.40
2018-06-01T00:45:11.234Z,75.30
2018-06-01T00:46:06.015Z,75.30
2018-06-01T00:47:10.720Z,75.20
2018-06-01T00:48:13.777Z,75.20
2018-06-01T00:49:06.302Z,75.20
2018-06-01T00:50:05.956Z,75.20
2018-06-01T00:51:06.032Z,75.00
2018-06-01T00:52:05.795Z,74.90
2018-06-01T00:53:08.272Z,75.40
2018-06-01T00:54:05.899Z,75.40
2018-06-01T00:55:06.047Z,75.50
2018-06-01T00:56:05.590Z,75.40
2018-06-01T00:57:06.318Z,75.70
2018-06-01T00:58:06.138Z,75.40
2018-06-01T00:59:05.948Z,75.40
2018-06-01T01:00:06.028Z,75.50
2018-06-01T01:01:07.097Z,75.70
2018-06-01T01:02:10.733Z,75.50
2018-06-01T01:03:08.627Z,75.80
2018-06-01T01:04:06.328Z,75.50
2018-06-01T01:05:06.088Z,76.10
2018-06-01T01:06:08.284Z,75.90
2018-06-01T01:07:05.753Z,75.80
2018-06-01T01:08:06.619Z,75.70
2018-06-01T01:09:06.671Z,75.50
2018-06-01T01:10:06.756Z,75.40
2018-06-01T01:11:06.496Z,75.40
2018-06-01T01:12:06.260Z,75.20
2018-06-01T01:13:06.081Z,75.20
2018-06-01T01:14:05.812Z,75.20
2018-06-01T01:15:10.754Z,75.40
2018-06-01T01:16:08.878Z,75.60
2018-06-01T01:17:11.526Z,76.20
2018-06-01T01:18:06.057Z,76.20
2018-06-01T01:19:08.347Z,76.40
2018-06-01T01:20:10.966Z,76.40
2018-06-01T01:21:06.577Z,76.10
2018-06-01T01:22:06.836Z,76.40
2018-06-01T01:23:05.675Z,76.60
2018-06-01T01:24:05.708Z,76.40
2018-06-01T01:25:11.517Z,76.00
2018-06-01T01:26:06.118Z,76.00
2018-06-01T01:27:06.202Z,75.80
2018-06-01T01:28:06.242Z,76.00
2018-06-01T01:29:06.303Z,76.00
2018-06-01T01:30:08.653Z,76.10
2018-06-01T01:31:12.369Z,76.10
2018-06-01T01:32:08.544Z,76.10
2018-06-01T01:33:08.651Z,75.60
2018-06-01T01:34:05.644Z,75.70
2018-06-01T01:35:07.415Z,76.00
2018-06-01T01:36:08.608Z,75.90
2018-06-01T01:37:06.297Z,75.80
2018-06-01T01:38:06.041Z,75.90
2018-06-01T01:39:06.041Z,76.90
2018-06-01T01:40:06.317Z,76.70
2018-06-01T01:41:06.247Z,76.50
2018-06-01T01:42:06.412Z,77.00
2018-06-01T01:43:06.352Z,77.60
2018-06-01T01:44:08.536Z,77.20
2018-06-01T01:45:06.173Z,77.20
2018-06-01T01:46:08.448Z,77.60
2018-06-01T01:47:06.019Z,77.60
2018-06-01T01:48:06.203Z,78.10
2018-06-01T01:49:05.987Z,78.20
2018-06-01T01:50:06.144Z,78.20
2018-06-01T01:51:06.001Z,78.20
2018-06-01T01:52:05.733Z,77.90
2018-06-01T01:53:08.926Z,78.30
2018-06-01T01:54:11.341Z,78.20
2018-06-01T01:55:05.903Z,78.50
2018-06-01T01:56:06.045Z,78.40
2018-06-01T01:57:08.045Z,78.50
2018-06-01T01:58:05.917Z,78.50
2018-06-01T01:59:05.989Z,78.60
2018-06-01T02:00:05.694Z,78.40
2018-06-01T02:01:08.299Z,78.10
2018-06-01T02:02:06.373Z,78.10
2018-06-01T02:03:05.947Z,78.40
2018-06-01T02:04:08.216Z,79.00
2018-06-01T02:05:06.091Z,79.00
2018-06-01T02:06:06.186Z,78.90
2018-06-01T02:07:10.867Z,78.60
2018-06-01T02:08:06.379Z,78.60
2018-06-01T02:09:11.014Z,78.70
2018-06-01T02:10:05.578Z,78.70
2018-06-01T02:11:05.629Z,78.90
2018-06-01T02:12:08.321Z,79.20
2018-06-01T02:13:13.404Z,79.10
2018-06-01T02:14:06.169Z,79.10
2018-06-01T02:15:06.174Z,79.00
2018-06-01T02:16:05.873Z,79.10
2018-06-01T02:17:05.811Z,79.00
2018-06-01T02:18:08.274Z,79.40
2018-06-01T02:19:06.376Z,79.40
2018-06-01T02:20:06.305Z,79.40
2018-06-01T02:21:05.912Z,79.10
2018-06-01T02:22:18.951Z,78.90
2018-06-01T02:23:05.545Z,79.00
2018-06-01T02:24:08.873Z,78.70
2018-06-01T02:25:06.906Z,78.60
2018-06-01T02:26:10.750Z,78.70
2018-06-01T02:27:08.834Z,79.10
2018-06-01T02:28:06.621Z,79.00
2018-06-01T02:29:11.530Z,78.70
2018-06-01T02:30:11.081Z,78.60
2018-06-01T02:31:10.729Z,78.60
2018-06-01T02:32:09.094Z,78.30
2018-06-01T02:33:08.642Z,78.30
2018-06-01T02:34:06.196Z,78.30
2018-06-01T02:35:06.401Z,78.30
2018-06-01T02:36:06.303Z,78.30
2018-06-01T02:37:06.056Z,78.10
2018-06-01T02:38:13.591Z,78.20
2018-06-01T02:39:06.114Z,78.00
2018-06-01T02:40:05.989Z,78.10
2018-06-01T02:41:06.023Z,77.90
2018-06-01T02:42:06.451Z,78.00
2018-06-01T02:43:05.700Z,78.10
2018-06-01T02:44:05.839Z,78.10
2018-06-01T02:45:10.858Z,78.20
2018-06-01T02:46:08.863Z,78.30
2018-06-01T02:47:08.708Z,78.30
2018-06-01T02:48:08.705Z,78.40
2018-06-01T02:49:11.311Z,78.40
2018-06-01T02:50:06.080Z,78.50
2018-06-01T02:51:06.069Z,78.50
2018-06-01T02:52:08.191Z,78.60
2018-06-01T02:53:05.928Z,78.60
2018-06-01T02:54:06.448Z,78.80
2018-06-01T02:55:11.591Z,79.00
2018-06-01T02:56:06.635Z,79.10
2018-06-01T02:57:06.346Z,79.20
2018-06-01T02:58:10.824Z,79.40
2018-06-01T02:59:08.876Z,79.70
2018-06-01T03:00:06.694Z,79.80
2018-06-01T03:01:06.696Z,80.30
2018-06-01T03:02:08.932Z,80.70
2018-06-01T03:03:06.454Z,80.80
2018-06-01T03:04:11.204Z,81.50
2018-06-01T03:05:10.804Z,81.30
2018-06-01T03:06:08.887Z,81.30
2018-06-01T03:07:11.600Z,81.40
2018-06-01T03:08:06.375Z,81.50
2018-06-01T03:09:06.158Z,81.80
2018-06-01T03:10:08.451Z,82.20
2018-06-01T03:11:11.070Z,82.60
2018-06-01T03:12:05.696Z,82.60
2018-06-01T03:13:05.706Z,82.70
2018-06-01T03:14:05.694Z,82.90
2018-06-01T03:15:08.976Z,83.20
2018-06-01T03:16:10.565Z,83.20
2018-06-01T03:17:06.142Z,83.20
2018-06-01T03:18:06.765Z,83.10
2018-06-01T03:19:06.760Z,83.00
2018-06-01T03:20:08.994Z,83.20
2018-06-01T03:21:08.037Z,83.30
2018-06-01T03:22:08.169Z,83.10
2018-06-01T03:23:05.633Z,83.20
2018-06-01T03:24:08.495Z,83.00
2018-06-01T03:25:06.332Z,83.00
2018-06-01T03:26:11.035Z,83.10
2018-06-01T03:27:08.131Z,83.10
2018-06-01T03:28:06.136Z,83.10
2018-06-01T03:29:15.886Z,83.10
2018-06-01T03:30:08.735Z,83.20
2018-06-01T03:31:08.716Z,83.20
2018-06-01T03:32:06.384Z,83.20
2018-06-01T03:33:08.637Z,83.90
2018-06-01T03:34:08.773Z,84.20
2018-06-01T03:35:05.803Z,84.20
2018-06-01T03:36:10.722Z,84.50
2018-06-01T03:37:06.176Z,84.50
2018-06-01T03:38:06.015Z,84.90
2018-06-01T03:39:15.837Z,85.40
2018-06-01T03:40:06.351Z,85.40
2018-06-01T03:41:06.053Z,85.60
2018-06-01T03:42:05.740Z,85.80
2018-06-01T03:43:05.583Z,85.80
2018-06-01T03:44:13.839Z,85.70
2018-06-01T03:45:06.549Z,85.70
2018-06-01T03:46:06.625Z,85.50
2018-06-01T03:47:13.774Z,85.70
2018-06-01T03:48:08.765Z,85.70
2018-06-01T03:49:06.449Z,85.60
2018-06-01T03:50:06.617Z,85.60
2018-06-01T03:51:06.577Z,85.60
2018-06-01T03:52:06.587Z,85.50
2018-06-01T03:53:06.461Z,85.50
2018-06-01T03:54:06.357Z,85.80
2018-06-01T03:55:06.254Z,85.70
2018-06-01T03:56:06.018Z,85.70
2018-06-01T03:57:10.682Z,85.70
2018-06-01T03:58:06.497Z,85.60
2018-06-01T03:59:11.256Z,85.70
2018-06-01T04:00:13.553Z,85.60
2018-06-01T04:01:11.253Z,85.60
2018-06-01T04:02:08.402Z,85.50
2018-06-01T04:03:13.496Z,85.60
2018-06-01T04:04:05.950Z,85.60
2018-06-01T04:05:10.960Z,85.50
2018-06-01T04:06:07.184Z,85.50
2018-06-01T04:07:08.378Z,85.60
2018-06-01T04:08:07.401Z,85.50
2018-06-01T04:09:13.662Z,85.50
2018-06-01T04:10:06.476Z,85.40
2018-06-01T04:11:06.651Z,85.50
2018-06-01T04:12:06.711Z,85.40
2018-06-01T04:13:06.086Z,85.40
2018-06-01T04:14:05.756Z,85.40
2018-06-01T04:15:06.236Z,85.50
2018-06-01T04:16:10.934Z,85.50
2018-06-01T04:17:06.213Z,85.90
2018-06-01T04:18:06.083Z,85.70
2018-06-01T04:19:05.577Z,85.80
2018-06-01T04:20:05.739Z,85.90
2018-06-01T04:21:05.760Z,85.80
2018-06-01T04:22:06.427Z,85.70
2018-06-01T04:23:06.082Z,85.60
2018-06-01T04:24:08.352Z,85.70
2018-06-01T04:25:10.871Z,85.60
2018-06-01T04:26:09.040Z,85.60
2018-06-01T04:27:08.103Z,85.60
2018-06-01T04:28:08.382Z,85.50
2018-06-01T04:29:08.330Z,85.60
2018-06-01T04:30:06.725Z,85.50
2018-06-01T04:31:06.722Z,85.50
2018-06-01T04:32:08.647Z,85.60
2018-06-01T04:33:06.119Z,85.60
2018-06-01T04:34:06.782Z,85.60
2018-06-01T04:35:06.394Z,85.70
2018-06-01T04:36:06.232Z,85.70
2018-06-01T04:37:06.146Z,85.70
2018-06-01T04:38:05.802Z,85.70
2018-06-01T04:39:06.014Z,85.90
2018-06-01T04:40:05.707Z,85.80
2018-06-01T04:41:06.471Z,85.70
2018-06-01T04:42:06.237Z,85.90
2018-06-01T04:43:05.948Z,85.80
2018-06-01T04:44:10.841Z,85.80
2018-06-01T04:45:11.442Z,85.90
2018-06-01T04:46:10.911Z,85.90
2018-06-01T04:47:06.870Z,85.70
2018-06-01T04:48:05.583Z,85.70
2018-06-01T04:49:05.970Z,85.70
2018-06-01T04:50:06.068Z,85.70
2018-06-01T04:51:06.058Z,85.50
2018-06-01T04:52:11.000Z,85.50
2018-06-01T04:53:06.533Z,85.60
2018-06-01T04:54:11.201Z,85.60
2018-06-01T04:55:10.844Z,85.90
2018-06-01T04:56:06.606Z,85.90
2018-06-01T04:57:06.287Z,86.10
2018-06-01T04:58:06.116Z,86.10
2018-06-01T04:59:06.027Z,86.10
2018-06-01T05:00:06.029Z,86.40
2018-06-01T05:01:05.767Z,86.40
2018-06-01T05:02:10.695Z,86.70
2018-06-01T05:03:08.780Z,86.60
2018-06-01T05:04:11.194Z,86.70
2018-06-01T05:05:06.143Z,86.50
2018-06-01T05:06:05.711Z,86.50
2018-06-01T05:07:11.704Z,86.40
2018-06-01T05:08:09.024Z,86.30
2018-06-01T05:09:05.688Z,86.40
2018-06-01T05:10:06.719Z,86.40
2018-06-01T05:11:10.958Z,86.40
2018-06-01T05:12:08.111Z,86.40
2018-06-01T05:13:06.144Z,86.20
2018-06-01T05:14:06.205Z,86.30
2018-06-01T05:15:08.363Z,86.20
2018-06-01T05:16:05.803Z,86.20
2018-06-01T05:17:08.983Z,86.20
2018-06-01T05:18:05.484Z,86.10
2018-06-01T05:19:08.391Z,86.10
2018-06-01T05:20:06.064Z,86.10
2018-06-01T05:21:08.842Z,86.00
2018-06-01T05:22:11.675Z,86.00
2018-06-01T05:23:11.260Z,85.90
2018-06-01T05:24:05.699Z,86.10
2018-06-01T05:25:06.387Z,86.00
2018-06-01T05:26:06.445Z,85.90
2018-06-01T05:27:06.045Z,85.80
2018-06-01T05:28:08.214Z,85.80
2018-06-01T05:29:10.673Z,85.80
2018-06-01T05:30:06.123Z,85.80
2018-06-01T05:31:09.339Z,85.70
2018-06-01T05:32:06.115Z,85.80
2018-06-01T05:33:05.701Z,85.70
2018-06-01T05:34:06.292Z,85.90
2018-06-01T05:35:05.655Z,85.70
2018-06-01T05:36:08.146Z,85.90
2018-06-01T05:37:05.832Z,85.90
2018-06-01T05:38:05.603Z,85.90
2018-06-01T05:39:05.964Z,86.00
2018-06-01T05:40:05.719Z,86.00
2018-06-01T05:41:06.067Z,86.00
2018-06-01T05:42:13.418Z,86.10
2018-06-01T05:43:11.136Z,86.10
2018-06-01T05:44:05.865Z,86.00
2018-06-01T05:45:05.836Z,85.90
2018-06-01T05:46:05.589Z,86.10
2018-06-01T05:47:06.265Z,85.90
2018-06-01T05:48:06.487Z,85.90
2018-06-01T05:49:06.572Z,85.90
2018-06-01T05:50:06.361Z,85.70
2018-06-01T05:51:06.052Z,85.70
2018-06-01T05:52:05.742Z,85.70
2018-06-01T05:53:11.432Z,85.70
2018-06-01T05:54:08.521Z,85.80
2018-06-01T05:55:05.981Z,85.80
2018-06-01T05:56:08.147Z,85.80
2018-06-01T05:57:10.695Z,85.80
2018-06-01T05:58:06.445Z,85.80
2018-06-01T05:59:06.089Z,85.90
2018-06-01T06:00:06.764Z,85.90
2018-06-01T06:01:06.388Z,85.90
2018-06-01T06:02:06.360Z,86.00
2018-06-01T06:03:13.940Z,86.10
2018-06-01T06:04:11.547Z,86.10
2018-06-01T06:05:06.144Z,86.10
2018-06-01T06:06:08.334Z,86.10
2018-06-01T06:07:08.288Z,86.10
2018-06-01T06:08:05.886Z,86.10
2018-06-01T06:09:06.153Z,86.00
2018-06-01T06:10:11.000Z,86.00
2018-06-01T06:11:08.976Z,86.00
2018-06-01T06:12:05.589Z,86.00
2018-06-01T06:13:10.739Z,86.20
2018-06-01T06:14:13.794Z,85.90
2018-06-01T06:15:08.725Z,85.90
2018-06-01T06:16:08.797Z,85.80
2018-06-01T06:17:11.446Z,85.70
2018-06-01T06:18:05.990Z,85.80
2018-06-01T06:19:06.276Z,85.80
2018-06-01T06:20:06.510Z,85.90
2018-06-01T06:21:05.763Z,86.00
2018-06-01T06:22:10.734Z,85.90
2018-06-01T06:23:08.860Z,85.80
2018-06-01T06:24:06.719Z,85.90
2018-06-01T06:25:06.494Z,85.80
2018-06-01T06:26:06.222Z,85.90
2018-06-01T06:27:10.923Z,85.80
2018-06-01T06:28:06.459Z,85.70
2018-06-01T06:29:06.280Z,85.70
2018-06-01T06:30:05.649Z,85.70
2018-06-01T06:31:10.698Z,85.70
2018-06-01T06:32:07.222Z,85.70
2018-06-01T06:33:10.993Z,85.70
2018-06-01T06:34:06.153Z,85.70
2018-06-01T06:35:06.340Z,85.80
2018-06-01T06:36:11.155Z,85.80
2018-06-01T06:37:06.460Z,85.90
2018-06-01T06:38:06.660Z,86.10
2018-06-01T06:39:06.334Z,86.60
2018-06-01T06:40:11.141Z,86.10
2018-06-01T06:41:05.823Z,86.10
2018-06-01T06:42:06.074Z,86.20
2018-06-01T06:43:05.883Z,86.30
2018-06-01T06:44:05.872Z,86.20
2018-06-01T06:45:05.984Z,86.10
2018-06-01T06:46:16.687Z,86.20
2018-06-01T06:47:06.506Z,86.10
2018-06-01T06:48:08.868Z,86.20
2018-06-01T06:49:09.029Z,86.10
2018-06-01T06:50:10.643Z,85.90
2018-06-01T06:51:08.518Z,86.10
2018-06-01T06:52:06.030Z,86.10
2018-06-01T06:53:05.921Z,86.00
2018-06-01T06:54:06.284Z,86.10
2018-06-01T06:55:10.749Z,86.00
2018-06-01T06:56:08.858Z,85.90
2018-06-01T06:57:11.491Z,85.90
2018-06-01T06:58:11.253Z,86.00
2018-06-01T06:59:05.995Z,86.00
2018-06-01T07:00:11.053Z,85.90
2018-06-01T07:01:08.075Z,85.90
2018-06-01T07:02:08.105Z,85.90
2018-06-01T07:03:10.764Z,85.90
2018-06-01T07:04:06.460Z,85.90
2018-06-01T07:05:06.055Z,86.10
2018-06-01T07:06:06.833Z,86.30
2018-06-01T07:07:08.952Z,86.60
2018-06-01T07:08:06.516Z,86.60
2018-06-01T07:09:06.527Z,86.50
2018-06-01T07:10:06.703Z,86.50
2018-06-01T07:11:08.808Z,86.40
2018-06-01T07:12:06.350Z,86.30
2018-06-01T07:13:08.594Z,86.70
2018-06-01T07:14:11.320Z,86.60
2018-06-01T07:15:08.879Z,86.60
2018-06-01T07:16:08.284Z,86.50
2018-06-01T07:17:05.851Z,86.50
2018-06-01T07:18:05.883Z,86.20
2018-06-01T07:19:05.660Z,86.20
2018-06-01T07:20:06.237Z,86.20
2018-06-01T07:21:05.932Z,86.20
2018-06-01T07:22:05.498Z,86.10
2018-06-01T07:23:06.401Z,86.10
2018-06-01T07:24:11.386Z,86.10
2018-06-01T07:25:10.973Z,86.20
2018-06-01T07:26:06.002Z,86.20
2018-06-01T07:27:06.444Z,86.60
2018-06-01T07:28:11.207Z,86.10
2018-06-01T07:29:06.984Z,86.00
2018-06-01T07:30:10.696Z,85.90
2018-06-01T07:31:05.963Z,85.90
2018-06-01T07:32:05.989Z,86.00
2018-06-01T07:33:06.437Z,86.20
2018-06-01T07:34:05.687Z,86.10
2018-06-01T07:35:06.435Z,86.20
2018-06-01T07:36:08.644Z,85.70
2018-06-01T07:37:06.577Z,85.60
2018-06-01T07:38:06.214Z,85.40
2018-06-01T07:39:06.076Z,85.30
2018-06-01T07:40:05.905Z,85.10
2018-06-01T07:41:06.312Z,84.80
2018-06-01T07:42:10.983Z,84.80
2018-06-01T07:43:05.918Z,84.80
2018-06-01T07:44:11.137Z,84.30
2018-06-01T07:45:05.735Z,84.30
2018-06-01T07:46:10.801Z,83.90
2018-06-01T07:47:11.376Z,83.80
2018-06-01T07:48:06.020Z,83.80
2018-06-01T07:49:05.937Z,83.70
2018-06-01T07:50:05.543Z,83.40
2018-06-01T07:51:06.726Z,83.40
2018-06-01T07:52:11.461Z,83.40
2018-06-01T07:53:07.354Z,83.50
2018-06-01T07:54:05.985Z,83.60
2018-06-01T07:55:05.737Z,83.80
2018-06-01T07:56:11.384Z,83.40
2018-06-01T07:57:10.975Z,83.40
2018-06-01T07:58:05.758Z,83.40
2018-06-01T07:59:06.361Z,83.30
2018-06-01T08:00:06.241Z,83.40
2018-06-01T08:01:10.888Z,83.30
2018-06-01T08:02:08.696Z,82.90
2018-06-01T08:03:11.584Z,82.90
2018-06-01T08:04:08.822Z,83.20
2018-06-01T08:05:06.714Z,83.20
2018-06-01T08:06:08.779Z,82.40
2018-06-01T08:07:08.870Z,82.00
2018-06-01T08:08:06.372Z,81.90
2018-06-01T08:09:08.481Z,81.00
2018-06-01T08:10:08.241Z,81.20
2018-06-01T08:11:08.377Z,81.10
2018-06-01T08:12:06.910Z,81.00
2018-06-01T08:13:06.017Z,80.70
2018-06-01T08:14:05.558Z,80.80
2018-06-01T08:15:06.975Z,80.80
2018-06-01T08:16:10.701Z,80.10
2018-06-01T08:17:08.818Z,79.50
2018-06-01T08:18:11.562Z,79.50
2018-06-01T08:19:06.520Z,79.50
2018-06-01T08:20:11.300Z,79.50
2018-06-01T08:21:05.794Z,79.50
2018-06-01T08:22:05.844Z,79.50
2018-06-01T08:23:08.169Z,79.60
2018-06-01T08:24:06.121Z,79.60
2018-06-01T08:25:06.356Z,79.80
2018-06-01T08:26:06.467Z,79.80
2018-06-01T08:27:06.106Z,79.80
2018-06-01T08:28:08.629Z,79.40
2018-06-01T08:29:11.193Z,79.30
2018-06-01T08:30:10.865Z,79.30
2018-06-01T08:31:06.514Z,79.30
2018-06-01T08:32:11.243Z,79.30
2018-06-01T08:33:08.235Z,79.10
2018-06-01T08:34:06.265Z,79.10
2018-06-01T08:35:11.029Z,79.00
2018-06-01T08:36:06.258Z,79.00
2018-06-01T08:37:08.429Z,78.90
2018-06-01T08:38:10.670Z,78.80
2018-06-01T08:39:06.644Z,78.80
2018-06-01T08:40:06.287Z,78.80
2018-06-01T08:41:05.943Z,78.70
2018-06-01T08:42:08.142Z,78.20
2018-06-01T08:43:08.562Z,78.00
2018-06-01T08:44:06.840Z,78.00
2018-06-01T08:45:05.499Z,78.10
2018-06-01T08:46:11.341Z,78.40
2018-06-01T08:47:06.407Z,78.40
2018-06-01T08:48:13.950Z,78.20
2018-06-01T08:49:10.557Z,78.10
2018-06-01T08:50:06.047Z,78.20
2018-06-01T08:51:06.559Z,78.20
2018-06-01T08:52:06.831Z,78.30
2018-06-01T08:53:08.986Z,78.10
2018-06-01T08:54:08.002Z,78.10
2018-06-01T08:55:05.491Z,78.10
2018-06-01T08:56:08.789Z,78.40
2018-06-01T08:57:06.571Z,78.40
2018-06-01T08:58:06.495Z,78.50
2018-06-01T08:59:06.525Z,78.60
2018-06-01T09:00:10.788Z,78.40
2018-06-01T09:01:11.427Z,77.90
2018-06-01T09:02:11.038Z,77.90
2018-06-01T09:03:05.595Z,77.30
2018-06-01T09:04:05.713Z,76.50
2018-06-01T09:05:08.888Z,76.90
2018-06-01T09:06:06.516Z,76.90
2018-06-01T09:07:06.386Z,76.20
2018-06-01T09:08:06.135Z,76.20
2018-06-01T09:09:08.374Z,76.50
2018-06-01T09:10:11.171Z,76.40
2018-06-01T09:11:08.324Z,76.80
2018-06-01T09:12:06.386Z,76.90
2018-06-01T09:13:06.348Z,76.60
2018-06-01T09:14:12.046Z,76.70
2018-06-01T09:15:11.432Z,77.40
2018-06-01T09:16:06.004Z,77.30
2018-06-01T09:17:06.684Z,77.60
2018-06-01T09:18:08.987Z,77.70
2018-06-01T09:19:05.745Z,77.70
2018-06-01T09:20:06.437Z,78.00
2018-06-01T09:21:08.734Z,77.50
2018-06-01T09:22:06.809Z,77.50
2018-06-01T09:23:05.629Z,77.90
2018-06-01T09:24:08.935Z,78.10
2018-06-01T09:25:06.567Z,78.20
2018-06-01T09:26:08.814Z,78.30
2018-06-01T09:27:06.476Z,78.30
2018-06-01T09:28:06.161Z,78.60
2018-06-01T09:29:05.985Z,78.40
2018-06-01T09:30:08.437Z,78.40
2018-06-01T09:31:06.333Z,78.30
2018-06-01T09:32:06.061Z,78.20
2018-06-01T09:33:06.136Z,77.40
2018-06-01T09:34:05.835Z,76.70
2018-06-01T09:35:08.082Z,76.10
2018-06-01T09:36:05.735Z,75.90
2018-06-01T09:37:06.270Z,75.90
2018-06-01T09:38:08.407Z,74.00
2018-06-01T09:39:06.161Z,74.10
2018-06-01T09:40:09.022Z,74.40
2018-06-01T09:41:05.914Z,74.40
2018-06-01T09:42:10.734Z,73.10
2018-06-01T09:43:06.696Z,73.10
2018-06-01T09:44:09.042Z,73.60
2018-06-01T09:45:05.709Z,73.60
2018-06-01T09:46:06.584Z,73.30
2018-06-01T09:47:06.368Z,73.40
2018-06-01T09:48:06.116Z,73.80
2018-06-01T09:49:06.265Z,72.80
2018-06-01T09:50:08.499Z,72.40
2018-06-01T09:51:11.134Z,72.30
2018-06-01T09:52:06.277Z,72.30
2018-06-01T09:53:11.293Z,72.10
2018-06-01T09:54:08.800Z,71.80
2018-06-01T09:55:06.492Z,71.90
2018-06-01T09:56:08.265Z,71.00
2018-06-01T09:57:05.981Z,71.00
2018-06-01T09:58:08.189Z,69.50
2018-06-01T09:59:08.438Z,69.70
2018-06-01T10:00:13.912Z,68.60
2018-06-01T10:01:06.544Z,68.60
2018-06-01T10:02:11.286Z,68.60
2018-06-01T10:03:11.025Z,67.70
2018-06-01T10:04:05.727Z,67.70
2018-06-01T10:05:06.611Z,68.00
2018-06-01T10:06:07.008Z,68.10
2018-06-01T10:07:08.511Z,69.10
2018-06-01T10:08:08.211Z,68.40
2018-06-01T10:09:08.406Z,67.00
2018-06-01T10:10:06.060Z,67.10
2018-06-01T10:11:06.306Z,67.40
2018-06-01T10:12:06.125Z,67.90
2018-06-01T10:13:05.802Z,66.80
2018-06-01T10:14:10.909Z,66.70
2018-06-01T10:15:09.048Z,67.80
2018-06-01T10:16:11.299Z,67.80
2018-06-01T10:17:08.900Z,67.60
2018-06-01T10:18:06.418Z,67.60
2018-06-01T10:19:06.160Z,68.10
2018-06-01T10:20:08.451Z,66.20
2018-06-01T10:21:08.619Z,66.80
2018-06-01T10:22:06.340Z,66.90
2018-06-01T10:23:06.085Z,66.70
2018-06-01T10:24:06.035Z,67.20
2018-06-01T10:25:08.357Z,67.60
2018-06-01T10:26:06.426Z,67.60
2018-06-01T10:27:08.633Z,69.20
2018-06-01T10:28:08.959Z,67.50
2018-06-01T10:29:08.114Z,66.90
2018-06-01T10:30:06.055Z,66.80
2018-06-01T10:31:05.809Z,66.30
2018-06-01T10:32:10.795Z,66.70
2018-06-01T10:33:06.654Z,65.80
2018-06-01T10:34:06.281Z,65.80
2018-06-01T10:35:05.963Z,65.70
2018-06-01T10:36:06.014Z,65.10
2018-06-01T10:37:10.592Z,63.80
2018-06-01T10:38:06.176Z,63.90
2018-06-01T10:39:06.403Z,64.10
2018-06-01T10:40:10.829Z,64.30
2018-06-01T10:41:08.835Z,63.80
2018-06-01T10:42:06.593Z,63.70
2018-06-01T10:43:06.266Z,63.40
2018-06-01T10:44:11.096Z,63.80
2018-06-01T10:45:10.935Z,64.50
2018-06-01T10:46:06.076Z,64.50
2018-06-01T10:47:10.813Z,64.80
2018-06-01T10:48:08.737Z,64.50
2018-06-01T10:49:06.424Z,64.50
2018-06-01T10:50:06.183Z,64.60
2018-06-01T10:51:06.269Z,64.00
2018-06-01T10:52:06.050Z,64.70
2018-06-01T10:53:06.188Z,64.40
2018-06-01T10:54:06.380Z,64.00
2018-06-01T10:55:06.479Z,64.20
2018-06-01T10:56:11.279Z,63.70
2018-06-01T10:57:08.274Z,63.80
2018-06-01T10:58:05.857Z,63.80
2018-06-01T10:59:08.153Z,63.00
2018-06-01T11:00:05.899Z,63.00
2018-06-01T11:01:08.027Z,63.50
2018-06-01T11:02:05.699Z,63.50
2018-06-01T11:03:06.533Z,63.30
2018-06-01T11:04:06.601Z,62.70
2018-06-01T11:05:06.552Z,60.90
2018-06-01T11:06:08.174Z,59.90
2018-06-01T11:07:06.113Z,59.90
2018-06-01T11:08:08.389Z,61.40
2018-06-01T11:09:05.966Z,61.40
2018-06-01T11:10:08.143Z,62.00
2018-06-01T11:11:08.323Z,60.30
2018-06-01T11:12:06.168Z,60.30
2018-06-01T11:13:06.092Z,59.60
2018-06-01T11:14:08.252Z,60.00
2018-06-01T11:15:05.742Z,60.10
2018-06-01T11:16:09.045Z,59.10
2018-06-01T11:17:08.896Z,58.90
2018-06-01T11:18:07.197Z,58.90
2018-06-01T11:19:08.266Z,59.10
2018-06-01T11:20:05.809Z,59.10
2018-06-01T11:21:10.753Z,58.80
2018-06-01T11:22:06.577Z,59.80
2018-06-01T11:23:08.826Z,58.70
2018-06-01T11:24:06.616Z,58.70
2018-06-01T11:25:06.636Z,57.80
2018-06-01T11:26:11.275Z,58.20
2018-06-01T11:27:05.953Z,58.90
2018-06-01T11:28:08.259Z,58.50
2018-06-01T11:29:06.156Z,58.60
2018-06-01T11:30:05.697Z,59.00
2018-06-01T11:31:06.448Z,59.80
2018-06-01T11:32:06.325Z,59.60
2018-06-01T11:33:08.493Z,58.80
2018-06-01T11:34:16.142Z,58.90
2018-06-01T11:35:10.799Z,58.70
2018-06-01T11:36:06.345Z,58.60
2018-06-01T11:37:08.647Z,57.90
2018-06-01T11:38:08.908Z,57.30
2018-06-01T11:39:08.965Z,57.00
2018-06-01T11:40:08.965Z,56.40
2018-06-01T11:41:06.455Z,56.40
2018-06-01T11:42:06.288Z,56.20
2018-06-01T11:43:12.164Z,54.60
2018-06-01T11:44:05.724Z,55.00
2018-06-01T11:45:11.460Z,55.30
2018-06-01T11:46:06.104Z,55.30
2018-06-01T11:47:06.007Z,55.10
2018-06-01T11:48:08.650Z,55.40
2018-06-01T11:49:06.318Z,55.40
2018-06-01T11:50:06.581Z,55.00
2018-06-01T11:51:06.464Z,55.40
2018-06-01T11:52:06.868Z,55.70
2018-06-01T11:53:05.808Z,55.80
2018-06-01T11:54:05.799Z,55.70
2018-06-01T11:55:09.380Z,55.90
2018-06-01T11:56:08.484Z,54.90
2018-06-01T11:57:06.227Z,54.90
2018-06-01T11:58:06.393Z,55.00
2018-06-01T11:59:08.696Z,55.80
2018-06-01T12:00:06.876Z,55.80
2018-06-01T12:01:05.747Z,56.10
2018-06-01T12:02:05.852Z,56.30
2018-06-01T12:03:05.974Z,56.00
2018-06-01T12:04:06.722Z,56.60
2018-06-01T12:05:10.848Z,56.80
2018-06-01T12:06:06.455Z,57.00
2018-06-01T12:07:11.067Z,57.20
2018-06-01T12:08:06.459Z,56.40
2018-06-01T12:09:11.243Z,55.60
2018-06-01T12:10:05.658Z,54.90
2018-06-01T12:11:05.864Z,55.10
2018-06-01T12:12:05.734Z,55.50
2018-06-01T12:13:10.696Z,54.30
2018-06-01T12:14:08.864Z,53.20
2018-06-01T12:15:09.066Z,52.80
2018-06-01T12:16:10.666Z,52.80
2018-06-01T12:17:06.481Z,52.60
2018-06-01T12:18:11.270Z,52.40
2018-06-01T12:19:05.896Z,53.10
2018-06-01T12:20:08.208Z,53.60
2018-06-01T12:21:05.747Z,53.60
2018-06-01T12:22:10.682Z,52.60
2018-06-01T12:23:06.130Z,51.50
2018-06-01T12:24:06.348Z,48.40
2018-06-01T12:25:11.006Z,47.60
2018-06-01T12:26:08.832Z,48.60
2018-06-01T12:27:06.421Z,48.60
2018-06-01T12:28:10.677Z,48.30
2018-06-01T12:29:06.387Z,48.30
2018-06-01T12:30:11.206Z,48.40
2018-06-01T12:31:05.847Z,48.80
2018-06-01T12:32:05.582Z,48.60
2018-06-01T12:33:08.866Z,46.80
2018-06-01T12:34:08.964Z,46.40
2018-06-01T12:35:05.610Z,46.40
2018-06-01T12:36:06.103Z,46.10
2018-06-01T12:37:05.835Z,45.80
2018-06-01T12:38:05.599Z,46.00
2018-06-01T12:39:06.542Z,46.40
2018-06-01T12:40:06.259Z,46.90
2018-06-01T12:41:06.035Z,47.30
2018-06-01T12:42:10.877Z,47.50
2018-06-01T12:43:06.724Z,47.00
2018-06-01T12:44:06.187Z,47.10
2018-06-01T12:45:05.932Z,46.00
2018-06-01T12:46:05.573Z,45.80
2018-06-01T12:47:06.489Z,45.70
2018-06-01T12:48:11.307Z,44.40
2018-06-01T12:49:10.758Z,44.40
2018-06-01T12:50:08.805Z,44.60
2018-06-01T12:51:08.874Z,44.60
2018-06-01T12:52:06.595Z,44.40